Аэропорт: Витебск Восточный. Витебск

ICAO: UMII

METAR:
2019-09-21 16:00:00
UMII 211600Z 24005G08MPS 4900 -RA OVC004 08/07 Q1008 R23/290050 TEMPO 2000 RA BKN003 RMK QBB120
METAR:
2019-09-21 14:05:00
TAF UMII 211405Z 2115/2124 25004G09MPS 3000 -RA OVC007 TEMPO 2115/2124 VRB14MPS 1000 SHRA BR BKN003 BKN010CB